Aviation Digital Data Service (ADDS)

Output produced by METARs form (1446 UTC 19 January 2019)
found at http://www.aviationweather.gov/metar/data/
 
METAR text: VQPR 191000Z 14018KT 9999 SKC 13/M03 Q1016
Conditions at: VQPR (PARO , BT) observed 1000 UTC 19 January 2019
Temperature: 13.0°C (55°F)
Dewpoint: -3.0°C (27°F) [RH = 33%]
Pressure (altimeter): 30.00 inches Hg (1016.0 mb)
Winds: from the SE (140 degrees) at 21 MPH (18 knots; 9.3 m/s)
Visibility: 6 or more miles (10+ km)
Ceiling: at least 12,000 feet AGL
Clouds: clear skies
Weather: no significant weather observed at this time

METAR text: VQPR 190930Z 14015KT 9999 SKC 14/M04 Q1016
Conditions at: VQPR (PARO , BT) observed 0930 UTC 19 January 2019
Temperature: 14.0°C (57°F)
Dewpoint: -4.0°C (25°F) [RH = 28%]
Pressure (altimeter): 30.00 inches Hg (1016.0 mb)
Winds: from the SE (140 degrees) at 17 MPH (15 knots; 7.7 m/s)
Visibility: 6 or more miles (10+ km)
Ceiling: at least 12,000 feet AGL
Clouds: clear skies
Weather: no significant weather observed at this time

METAR text: VQPR 190900Z 14013KT 9999 SKC 14/M05 Q1017
Conditions at: VQPR (PARO , BT) observed 0900 UTC 19 January 2019
Temperature: 14.0°C (57°F)
Dewpoint: -5.0°C (23°F) [RH = 26%]
Pressure (altimeter): 30.03 inches Hg (1017.0 mb)
Winds: from the SE (140 degrees) at 15 MPH (13 knots; 6.7 m/s)
Visibility: 6 or more miles (10+ km)
Ceiling: at least 12,000 feet AGL
Clouds: clear skies
Weather: no significant weather observed at this time

METAR text: VQPR 190830Z 13012KT 9999 SKC 15/M05 Q1017
Conditions at: VQPR (PARO , BT) observed 0830 UTC 19 January 2019
Temperature: 15.0°C (59°F)
Dewpoint: -5.0°C (23°F) [RH = 25%]
Pressure (altimeter): 30.03 inches Hg (1017.0 mb)
Winds: from the SE (130 degrees) at 14 MPH (12 knots; 6.2 m/s)
Visibility: 6 or more miles (10+ km)
Ceiling: at least 12,000 feet AGL
Clouds: clear skies
Weather: no significant weather observed at this time

METAR text: VQPR 190800Z 14016KT 9999 SKC 15/M05 Q1017
Conditions at: VQPR (PARO , BT) observed 0800 UTC 19 January 2019
Temperature: 15.0°C (59°F)
Dewpoint: -5.0°C (23°F) [RH = 25%]
Pressure (altimeter): 30.03 inches Hg (1017.0 mb)
Winds: from the SE (140 degrees) at 18 MPH (16 knots; 8.2 m/s)
Visibility: 6 or more miles (10+ km)
Ceiling: at least 12,000 feet AGL
Clouds: clear skies
Weather: no significant weather observed at this time

METAR text: VQPR 190730Z 14015KT 9999 SKC 15/M06 Q1018
Conditions at: VQPR (PARO , BT) observed 0730 UTC 19 January 2019
Temperature: 15.0°C (59°F)
Dewpoint: -6.0°C (21°F) [RH = 23%]
Pressure (altimeter): 30.06 inches Hg (1018.0 mb)
Winds: from the SE (140 degrees) at 17 MPH (15 knots; 7.7 m/s)
Visibility: 6 or more miles (10+ km)
Ceiling: at least 12,000 feet AGL
Clouds: clear skies
Weather: no significant weather observed at this time

METAR text: VQPR 190700Z 15006KT 9999 SKC 15/M05 Q1019
Conditions at: VQPR (PARO , BT) observed 0700 UTC 19 January 2019
Temperature: 15.0°C (59°F)
Dewpoint: -5.0°C (23°F) [RH = 25%]
Pressure (altimeter): 30.09 inches Hg (1019.0 mb)
Winds: from the SSE (150 degrees) at 7 MPH (6 knots; 3.1 m/s)
Visibility: 6 or more miles (10+ km)
Ceiling: at least 12,000 feet AGL
Clouds: clear skies
Weather: no significant weather observed at this time

METAR text: VQPR 190630Z 17006KT 9999 SKC 12/M06 Q1020
Conditions at: VQPR (PARO , BT) observed 0630 UTC 19 January 2019
Temperature: 12.0°C (54°F)
Dewpoint: -6.0°C (21°F) [RH = 28%]
Pressure (altimeter): 30.12 inches Hg (1020.0 mb)
Winds: from the S (170 degrees) at 7 MPH (6 knots; 3.1 m/s)
Visibility: 6 or more miles (10+ km)
Ceiling: at least 12,000 feet AGL
Clouds: clear skies
Weather: no significant weather observed at this time

METAR text: VQPR 190600Z 16003KT 9999 SKC 11/M07 Q1021
Conditions at: VQPR (PARO , BT) observed 0600 UTC 19 January 2019
Temperature: 11.0°C (52°F)
Dewpoint: -7.0°C (19°F) [RH = 28%]
Pressure (altimeter): 30.15 inches Hg (1021.0 mb)
Winds: from the SSE (160 degrees) at 3 MPH (3 knots; 1.5 m/s)
Visibility: 6 or more miles (10+ km)
Ceiling: at least 12,000 feet AGL
Clouds: clear skies
Weather: no significant weather observed at this time

METAR text: VQPR 190530Z 19004KT 9999 SKC 10/M06 Q1022
Conditions at: VQPR (PARO , BT) observed 0530 UTC 19 January 2019
Temperature: 10.0°C (50°F)
Dewpoint: -6.0°C (21°F) [RH = 32%]
Pressure (altimeter): 30.18 inches Hg (1022.0 mb)
Winds: from the S (190 degrees) at 5 MPH (4 knots; 2.1 m/s)
Visibility: 6 or more miles (10+ km)
Ceiling: at least 12,000 feet AGL
Clouds: clear skies
Weather: no significant weather observed at this time

METAR text: VQPR 190500Z VRB02KT 9999 SKC 08/M06 Q1023
Conditions at: VQPR (PARO , BT) observed 0500 UTC 19 January 2019
Temperature: 8.0°C (46°F)
Dewpoint: -6.0°C (21°F) [RH = 36%]
Pressure (altimeter): 30.21 inches Hg (1023.0 mb)
Winds: variable direction winds at 2 MPH (2 knots; 1.0 m/s)
Visibility: 6 or more miles (10+ km)
Ceiling: at least 12,000 feet AGL
Clouds: clear skies
Weather: no significant weather observed at this time

METAR text: VQPR 190430Z VRB02KT 9999 SKC 07/M05 Q1024
Conditions at: VQPR (PARO , BT) observed 0430 UTC 19 January 2019
Temperature: 7.0°C (45°F)
Dewpoint: -5.0°C (23°F) [RH = 42%]
Pressure (altimeter): 30.24 inches Hg (1024.0 mb)
Winds: variable direction winds at 2 MPH (2 knots; 1.0 m/s)
Visibility: 6 or more miles (10+ km)
Ceiling: at least 12,000 feet AGL
Clouds: clear skies
Weather: no significant weather observed at this time

METAR text: VQPR 190400Z VRB02KT 9999 SKC 05/M05 Q1024
Conditions at: VQPR (PARO , BT) observed 0400 UTC 19 January 2019
Temperature: 5.0°C (41°F)
Dewpoint: -5.0°C (23°F) [RH = 48%]
Pressure (altimeter): 30.24 inches Hg (1024.0 mb)
Winds: variable direction winds at 2 MPH (2 knots; 1.0 m/s)
Visibility: 6 or more miles (10+ km)
Ceiling: at least 12,000 feet AGL
Clouds: clear skies
Weather: no significant weather observed at this time

METAR text: VQPR 190330Z VRB02KT 9999 SKC 02/M04 Q1025
Conditions at: VQPR (PARO , BT) observed 0330 UTC 19 January 2019
Temperature: 2.0°C (36°F)
Dewpoint: -4.0°C (25°F) [RH = 64%]
Pressure (altimeter): 30.27 inches Hg (1025.0 mb)
Winds: variable direction winds at 2 MPH (2 knots; 1.0 m/s)
Visibility: 6 or more miles (10+ km)
Ceiling: at least 12,000 feet AGL
Clouds: clear skies
Weather: no significant weather observed at this time

METAR text: VQPR 190300Z VRB02KT 9999 SKC 00/M04 Q1025
Conditions at: VQPR (PARO , BT) observed 0300 UTC 19 January 2019
Temperature: 0.0°C (32°F)
Dewpoint: -4.0°C (25°F) [RH = 74%]
Pressure (altimeter): 30.27 inches Hg (1025.0 mb)
Winds: variable direction winds at 2 MPH (2 knots; 1.0 m/s)
Visibility: 6 or more miles (10+ km)
Ceiling: at least 12,000 feet AGL
Clouds: clear skies
Weather: no significant weather observed at this time

METAR text: VQPR 190130Z 30003KT 9999 SKC M05/M07 Q1024
Conditions at: VQPR (PARO , BT) observed 0130 UTC 19 January 2019
Temperature: -5.0°C (23°F)
Dewpoint: -7.0°C (19°F) [RH = 86%]
Pressure (altimeter): 30.24 inches Hg (1024.0 mb)
Winds: from the WNW (300 degrees) at 3 MPH (3 knots; 1.5 m/s)
Visibility: 6 or more miles (10+ km)
Ceiling: at least 12,000 feet AGL
Clouds: clear skies
Weather: no significant weather observed at this time

METAR text: VQPR 190100Z 29002KT 9999 SKC M06/M08 Q1024
Conditions at: VQPR (PARO , BT) observed 0100 UTC 19 January 2019
Temperature: -6.0°C (21°F)
Dewpoint: -8.0°C (18°F) [RH = 86%]
Pressure (altimeter): 30.24 inches Hg (1024.0 mb)
Winds: from the WNW (290 degrees) at 2 MPH (2 knots; 1.0 m/s)
Visibility: 6 or more miles (10+ km)
Ceiling: at least 12,000 feet AGL
Clouds: clear skies
Weather: no significant weather observed at this time

METAR text: VQPR 190030Z 29003KT 9999 SKC M05/M07 Q1024
Conditions at: VQPR (PARO , BT) observed 0030 UTC 19 January 2019
Temperature: -5.0°C (23°F)
Dewpoint: -7.0°C (19°F) [RH = 86%]
Pressure (altimeter): 30.24 inches Hg (1024.0 mb)
Winds: from the WNW (290 degrees) at 3 MPH (3 knots; 1.5 m/s)
Visibility: 6 or more miles (10+ km)
Ceiling: at least 12,000 feet AGL
Clouds: clear skies
Weather: no significant weather observed at this time

METAR text: VQPR 181100Z 14013KT 9999 SKC 11/M07 Q1016
Conditions at: VQPR (PARO , BT) observed 1100 UTC 18 January 2019
Temperature: 11.0°C (52°F)
Dewpoint: -7.0°C (19°F) [RH = 28%]
Pressure (altimeter): 30.00 inches Hg (1016.0 mb)
Winds: from the SE (140 degrees) at 15 MPH (13 knots; 6.7 m/s)
Visibility: 6 or more miles (10+ km)
Ceiling: at least 12,000 feet AGL
Clouds: clear skies
Weather: no significant weather observed at this time

METAR text: VQPR 181030Z 15016G38KT 9999 SKC 12/M08 Q1016
Conditions at: VQPR (PARO , BT) observed 1030 UTC 18 January 2019
Temperature: 12.0°C (54°F)
Dewpoint: -8.0°C (18°F) [RH = 24%]
Pressure (altimeter): 30.00 inches Hg (1016.0 mb)
Winds: from the SSE (150 degrees) at 18 MPH (16 knots; 8.2 m/s)
gusting to 44 MPH (38 knots; 19.5 m/s)
Visibility: 6 or more miles (10+ km)
Ceiling: at least 12,000 feet AGL
Clouds: clear skies
Weather: no significant weather observed at this time

METAR text: VQPR 181000Z 14015KT 9999 SKC 13/M08 Q1016
Conditions at: VQPR (PARO , BT) observed 1000 UTC 18 January 2019
Temperature: 13.0°C (55°F)
Dewpoint: -8.0°C (18°F) [RH = 22%]
Pressure (altimeter): 30.00 inches Hg (1016.0 mb)
Winds: from the SE (140 degrees) at 17 MPH (15 knots; 7.7 m/s)
Visibility: 6 or more miles (10+ km)
Ceiling: at least 12,000 feet AGL
Clouds: clear skies
Weather: no significant weather observed at this time

METAR text: VQPR 180930Z 14016KT 9999 SKC 14/M09 Q1016
Conditions at: VQPR (PARO , BT) observed 0930 UTC 18 January 2019
Temperature: 14.0°C (57°F)
Dewpoint: -9.0°C (16°F) [RH = 19%]
Pressure (altimeter): 30.00 inches Hg (1016.0 mb)
Winds: from the SE (140 degrees) at 18 MPH (16 knots; 8.2 m/s)
Visibility: 6 or more miles (10+ km)
Ceiling: at least 12,000 feet AGL
Clouds: clear skies
Weather: no significant weather observed at this time

METAR text: VQPR 180900Z 14015KT 9999 FEW040 14/M10 Q1016
Conditions at: VQPR (PARO , BT) observed 0900 UTC 18 January 2019
Temperature: 14.0°C (57°F)
Dewpoint: -10.0°C (14°F) [RH = 18%]
Pressure (altimeter): 30.00 inches Hg (1016.0 mb)
Winds: from the SE (140 degrees) at 17 MPH (15 knots; 7.7 m/s)
Visibility: 6 or more miles (10+ km)
Ceiling: at least 12,000 feet AGL
Clouds: few clouds at 4000 feet AGL
Weather: no significant weather observed at this time

METAR text: VQPR 180830Z 14016KT 9999 FEW040 15/M10 Q1016
Conditions at: VQPR (PARO , BT) observed 0830 UTC 18 January 2019
Temperature: 15.0°C (59°F)
Dewpoint: -10.0°C (14°F) [RH = 17%]
Pressure (altimeter): 30.00 inches Hg (1016.0 mb)
Winds: from the SE (140 degrees) at 18 MPH (16 knots; 8.2 m/s)
Visibility: 6 or more miles (10+ km)
Ceiling: at least 12,000 feet AGL
Clouds: few clouds at 4000 feet AGL
Weather: no significant weather observed at this time

METAR text: VQPR 180800Z 16014KT 9999 FEW040 15/M12 Q1016
Conditions at: VQPR (PARO , BT) observed 0800 UTC 18 January 2019
Temperature: 15.0°C (59°F)
Dewpoint: -12.0°C (10°F) [RH = 14%]
Pressure (altimeter): 30.00 inches Hg (1016.0 mb)
Winds: from the SSE (160 degrees) at 16 MPH (14 knots; 7.2 m/s)
Visibility: 6 or more miles (10+ km)
Ceiling: at least 12,000 feet AGL
Clouds: few clouds at 4000 feet AGL
Weather: no significant weather observed at this time

METAR text: VQPR 180730Z 14014KT 9999 NSC 15/M14 Q1017
Conditions at: VQPR (PARO , BT) observed 0730 UTC 18 January 2019
Temperature: 15.0°C (59°F)
Dewpoint: -14.0°C ( 7°F) [RH = 12%]
Pressure (altimeter): 30.03 inches Hg (1017.0 mb)
Winds: from the SE (140 degrees) at 16 MPH (14 knots; 7.2 m/s)
Visibility: 6 or more miles (10+ km)
Ceiling: at least 12,000 feet AGL
Clouds: sky clear below 12,000 feet AGL
Weather: no significant weather observed at this time

METAR text: VQPR 180700Z 15011KT 9999 NSC 15/M16 Q1018
Conditions at: VQPR (PARO , BT) observed 0700 UTC 18 January 2019
Temperature: 15.0°C (59°F)
Dewpoint: -16.0°C ( 3°F) [RH = 10%]
Pressure (altimeter): 30.06 inches Hg (1018.0 mb)
Winds: from the SSE (150 degrees) at 13 MPH (11 knots; 5.7 m/s)
Visibility: 6 or more miles (10+ km)
Ceiling: at least 12,000 feet AGL
Clouds: sky clear below 12,000 feet AGL
Weather: no significant weather observed at this time

METAR text: VQPR 180600Z 16003KT 9999 SKC 12/M16 Q1020
Conditions at: VQPR (PARO , BT) observed 0600 UTC 18 January 2019
Temperature: 12.0°C (54°F)
Dewpoint: -16.0°C ( 3°F) [RH = 13%]
Pressure (altimeter): 30.12 inches Hg (1020.0 mb)
Winds: from the SSE (160 degrees) at 3 MPH (3 knots; 1.5 m/s)
Visibility: 6 or more miles (10+ km)
Ceiling: at least 12,000 feet AGL
Clouds: clear skies
Weather: no significant weather observed at this time

METAR text: VQPR 180530Z VRB02KT 9999 SKC 11/M13 Q1021
Conditions at: VQPR (PARO , BT) observed 0530 UTC 18 January 2019
Temperature: 11.0°C (52°F)
Dewpoint: -13.0°C ( 9°F) [RH = 17%]
Pressure (altimeter): 30.15 inches Hg (1021.0 mb)
Winds: variable direction winds at 2 MPH (2 knots; 1.0 m/s)
Visibility: 6 or more miles (10+ km)
Ceiling: at least 12,000 feet AGL
Clouds: clear skies
Weather: no significant weather observed at this time

METAR text: VQPR 180500Z VRB01KT 9999 SKC 10/M13 Q1022
Conditions at: VQPR (PARO , BT) observed 0500 UTC 18 January 2019
Temperature: 10.0°C (50°F)
Dewpoint: -13.0°C ( 9°F) [RH = 18%]
Pressure (altimeter): 30.18 inches Hg (1022.0 mb)
Winds: variable direction winds at 1 MPH (1 knots; 0.5 m/s)
Visibility: 6 or more miles (10+ km)
Ceiling: at least 12,000 feet AGL
Clouds: clear skies
Weather: no significant weather observed at this time

METAR text: VQPR 180430Z VRB02KT 9999 SKC 07/M10 Q1023
Conditions at: VQPR (PARO , BT) observed 0430 UTC 18 January 2019
Temperature: 7.0°C (45°F)
Dewpoint: -10.0°C (14°F) [RH = 29%]
Pressure (altimeter): 30.21 inches Hg (1023.0 mb)
Winds: variable direction winds at 2 MPH (2 knots; 1.0 m/s)
Visibility: 6 or more miles (10+ km)
Ceiling: at least 12,000 feet AGL
Clouds: clear skies
Weather: no significant weather observed at this time

METAR text: VQPR 180400Z VRB02KT 9999 SKC 05/M10 Q1024
Conditions at: VQPR (PARO , BT) observed 0400 UTC 18 January 2019
Temperature: 5.0°C (41°F)
Dewpoint: -10.0°C (14°F) [RH = 33%]
Pressure (altimeter): 30.24 inches Hg (1024.0 mb)
Winds: variable direction winds at 2 MPH (2 knots; 1.0 m/s)
Visibility: 6 or more miles (10+ km)
Ceiling: at least 12,000 feet AGL
Clouds: clear skies
Weather: no significant weather observed at this time

METAR text: VQPR 180330Z VRB01KT 9999 SKC 02/M09 Q1025
Conditions at: VQPR (PARO , BT) observed 0330 UTC 18 January 2019
Temperature: 2.0°C (36°F)
Dewpoint: -9.0°C (16°F) [RH = 44%]
Pressure (altimeter): 30.27 inches Hg (1025.0 mb)
Winds: variable direction winds at 1 MPH (1 knots; 0.5 m/s)
Visibility: 6 or more miles (10+ km)
Ceiling: at least 12,000 feet AGL
Clouds: clear skies
Weather: no significant weather observed at this time

METAR text: VQPR 180300Z VRB02KT 9999 SKC M00/M08 Q1025
Conditions at: VQPR (PARO , BT) observed 0300 UTC 18 January 2019
Temperature: 0.0°C (32°F)
Dewpoint: -8.0°C (18°F) [RH = 55%]
Pressure (altimeter): 30.27 inches Hg (1025.0 mb)
Winds: variable direction winds at 2 MPH (2 knots; 1.0 m/s)
Visibility: 6 or more miles (10+ km)
Ceiling: at least 12,000 feet AGL
Clouds: clear skies
Weather: no significant weather observed at this time